WJA604 CYMM-CYEG
Flight info
| Callsign | WJA604 |
|---|---|
| Flight time | 0h 36m |
| Altitude | 32000 |
| Route | YMM DCT CACHO DCT RESAX RESAX1 |
| Aircraft | B738/M-SDE2E3FGHIRWXY/LB1 |
Departure
| Time | 2026-05-06 00:41 |
|---|---|
| Airport | Fort McMurray International Airport (CYMM) |
Arrival
| Time | 2026-05-06 01:18 |
|---|---|
| Airport | Edmonton International Airport (CYEG) |
| Time | Latitude | Longitude | Altitude | Speed | Heading |
|---|---|---|---|---|---|
| 2026-05-06 00:26 | 56.65010 | -111.22881 | 1215 ft | 0 kts | 269° |
| 2026-05-06 00:33 | 56.65010 | -111.22844 | 1215 ft | 4 kts | 270° |
| 2026-05-06 00:33 | 56.65010 | -111.22796 | 1215 ft | 4 kts | 261° |
| 2026-05-06 00:34 | 56.65019 | -111.22753 | 1215 ft | 4 kts | 224° |
| 2026-05-06 00:34 | 56.65039 | -111.22734 | 1215 ft | 2 kts | 180° |
| 2026-05-06 00:34 | 56.65040 | -111.22734 | 1215 ft | 0 kts | 180° |
| 2026-05-06 00:36 | 56.65039 | -111.22734 | 1215 ft | 0 kts | 180° |
| 2026-05-06 00:36 | 56.65017 | -111.22734 | 1215 ft | 8 kts | 180° |
| 2026-05-06 00:37 | 56.64931 | -111.22735 | 1215 ft | 15 kts | 181° |
| 2026-05-06 00:37 | 56.64895 | -111.22632 | 1215 ft | 11 kts | 89° |
| 2026-05-06 00:37 | 56.64918 | -111.22506 | 1215 ft | 12 kts | 32° |
| 2026-05-06 00:37 | 56.64997 | -111.22486 | 1215 ft | 11 kts | 358° |
| 2026-05-06 00:38 | 56.65080 | -111.22492 | 1215 ft | 13 kts | 358° |
| 2026-05-06 00:38 | 56.65152 | -111.22471 | 1215 ft | 10 kts | 49° |
| 2026-05-06 00:38 | 56.65163 | -111.22349 | 1215 ft | 11 kts | 88° |
| 2026-05-06 00:38 | 56.65164 | -111.22160 | 1214 ft | 22 kts | 91° |
| 2026-05-06 00:39 | 56.65162 | -111.21875 | 1213 ft | 23 kts | 90° |
| 2026-05-06 00:39 | 56.65161 | -111.21593 | 1212 ft | 22 kts | 90° |
| 2026-05-06 00:39 | 56.65161 | -111.21319 | 1211 ft | 21 kts | 90° |
| 2026-05-06 00:39 | 56.65161 | -111.21054 | 1209 ft | 21 kts | 90° |
| 2026-05-06 00:40 | 56.65162 | -111.20796 | 1208 ft | 20 kts | 89° |
| 2026-05-06 00:40 | 56.65163 | -111.20575 | 1207 ft | 12 kts | 89° |
| 2026-05-06 00:40 | 56.65239 | -111.20491 | 1207 ft | 21 kts | 1° |
| 2026-05-06 00:40 | 56.65320 | -111.20626 | 1206 ft | 17 kts | 269° |
| 2026-05-06 00:41 | 56.65320 | -111.21220 | 1206 ft | 84 kts | 270° |
| 2026-05-06 00:41 | 56.65321 | -111.22705 | 1207 ft | 148 kts | 271° |
| 2026-05-06 00:41 | 56.65344 | -111.24803 | 1556 ft | 172 kts | 271° |
| 2026-05-06 00:41 | 56.65364 | -111.27117 | 2022 ft | 201 kts | 270° |
| 2026-05-06 00:42 | 56.65293 | -111.29784 | 2447 ft | 216 kts | 250° |
| 2026-05-06 00:42 | 56.64362 | -111.31832 | 3008 ft | 224 kts | 214° |
| 2026-05-06 00:42 | 56.62879 | -111.33199 | 3219 ft | 253 kts | 202° |
| 2026-05-06 00:42 | 56.61197 | -111.34338 | 4033 ft | 260 kts | 200° |
| 2026-05-06 00:43 | 56.59491 | -111.35452 | 5056 ft | 261 kts | 200° |
| 2026-05-06 00:43 | 56.57756 | -111.36611 | 5877 ft | 270 kts | 201° |
| 2026-05-06 00:43 | 56.55982 | -111.37833 | 6755 ft | 275 kts | 202° |
| 2026-05-06 00:43 | 56.54185 | -111.39100 | 7634 ft | 279 kts | 203° |
| 2026-05-06 00:44 | 56.52959 | -111.39979 | 8237 ft | 281 kts | 203° |
| 2026-05-06 00:44 | 56.50530 | -111.41744 | 9402 ft | 287 kts | 203° |
| 2026-05-06 00:44 | 56.49271 | -111.42668 | 9995 ft | 290 kts | 203° |
| 2026-05-06 00:44 | 56.47369 | -111.44073 | 10550 ft | 306 kts | 203° |
| 2026-05-06 00:45 | 56.45314 | -111.45599 | 10761 ft | 332 kts | 203° |
| 2026-05-06 00:45 | 56.43103 | -111.47247 | 10956 ft | 355 kts | 203° |
| 2026-05-06 00:45 | 56.40771 | -111.48986 | 11446 ft | 367 kts | 204° |
| 2026-05-06 00:45 | 56.38392 | -111.50760 | 12164 ft | 372 kts | 204° |
| 2026-05-06 00:46 | 56.36015 | -111.52531 | 12974 ft | 376 kts | 204° |
| 2026-05-06 00:46 | 56.33584 | -111.54343 | 13766 ft | 381 kts | 204° |
| 2026-05-06 00:46 | 56.31116 | -111.56181 | 14457 ft | 388 kts | 204° |
| 2026-05-06 00:46 | 56.28589 | -111.58063 | 14966 ft | 399 kts | 204° |
| 2026-05-06 00:47 | 56.25995 | -111.59993 | 15546 ft | 408 kts | 204° |
| 2026-05-06 00:47 | 56.23341 | -111.61964 | 16157 ft | 417 kts | 205° |
| 2026-05-06 00:47 | 56.20634 | -111.63972 | 16699 ft | 426 kts | 205° |
| 2026-05-06 00:47 | 56.17838 | -111.66047 | 17089 ft | 440 kts | 205° |
| 2026-05-06 00:48 | 56.14977 | -111.68163 | 17639 ft | 449 kts | 206° |
| 2026-05-06 00:48 | 56.12059 | -111.70315 | 18206 ft | 457 kts | 206° |
| 2026-05-06 00:48 | 56.09089 | -111.72501 | 18720 ft | 466 kts | 206° |
| 2026-05-06 00:48 | 56.06069 | -111.74718 | 19340 ft | 469 kts | 206° |
| 2026-05-06 00:49 | 56.03046 | -111.76932 | 20063 ft | 470 kts | 206° |
| 2026-05-06 00:49 | 56.00018 | -111.79146 | 20724 ft | 472 kts | 206° |
| 2026-05-06 00:49 | 55.96967 | -111.81376 | 21336 ft | 475 kts | 206° |
| 2026-05-06 00:49 | 55.93893 | -111.83621 | 21882 ft | 480 kts | 206° |
| 2026-05-06 00:50 | 55.90790 | -111.85883 | 22431 ft | 484 kts | 206° |
| 2026-05-06 00:50 | 55.87659 | -111.88161 | 22997 ft | 487 kts | 206° |
| 2026-05-06 00:50 | 55.84506 | -111.90452 | 23563 ft | 491 kts | 206° |
| 2026-05-06 00:50 | 55.81337 | -111.92748 | 24105 ft | 490 kts | 206° |
| 2026-05-06 00:51 | 55.78183 | -111.95026 | 24693 ft | 490 kts | 207° |
| 2026-05-06 00:51 | 55.75004 | -111.97324 | 25037 ft | 496 kts | 207° |
| 2026-05-06 00:51 | 55.71786 | -111.99648 | 25374 ft | 502 kts | 207° |
| 2026-05-06 00:51 | 55.68579 | -112.01959 | 25757 ft | 505 kts | 207° |
| 2026-05-06 00:52 | 55.65312 | -112.04307 | 26181 ft | 508 kts | 207° |
| 2026-05-06 00:52 | 55.62022 | -112.06668 | 26478 ft | 514 kts | 207° |
| 2026-05-06 00:52 | 55.58693 | -112.09052 | 26820 ft | 518 kts | 207° |
| 2026-05-06 00:52 | 55.55348 | -112.11442 | 27221 ft | 520 kts | 207° |
| 2026-05-06 00:53 | 55.51987 | -112.13838 | 27593 ft | 523 kts | 207° |
| 2026-05-06 00:53 | 55.48598 | -112.16250 | 27953 ft | 526 kts | 207° |
| 2026-05-06 00:53 | 55.45196 | -112.18668 | 28279 ft | 529 kts | 207° |
| 2026-05-06 00:53 | 55.41768 | -112.21100 | 28611 ft | 532 kts | 207° |
| 2026-05-06 00:54 | 55.38328 | -112.23535 | 28990 ft | 534 kts | 207° |
| 2026-05-06 00:54 | 55.34880 | -112.25969 | 29483 ft | 533 kts | 207° |
| 2026-05-06 00:54 | 55.31444 | -112.28389 | 30012 ft | 532 kts | 207° |
| 2026-05-06 00:54 | 55.27998 | -112.30815 | 30376 ft | 534 kts | 207° |
| 2026-05-06 00:55 | 55.24535 | -112.33249 | 30722 ft | 535 kts | 207° |
| 2026-05-06 00:55 | 55.21082 | -112.35671 | 31141 ft | 535 kts | 207° |
| 2026-05-06 00:55 | 55.17636 | -112.38083 | 31602 ft | 533 kts | 207° |
| 2026-05-06 00:55 | 55.14195 | -112.40485 | 32099 ft | 530 kts | 207° |
| 2026-05-06 00:56 | 55.10764 | -112.42879 | 32215 ft | 534 kts | 207° |
| 2026-05-06 00:56 | 55.03931 | -112.47631 | 32206 ft | 526 kts | 207° |
| 2026-05-06 00:57 | 54.97153 | -112.52329 | 32225 ft | 526 kts | 207° |
| 2026-05-06 00:57 | 54.90325 | -112.57054 | 32238 ft | 530 kts | 207° |
| 2026-05-06 00:58 | 54.83384 | -112.61530 | 32230 ft | 534 kts | 205° |
| 2026-05-06 00:58 | 54.76358 | -112.65806 | 32234 ft | 535 kts | 205° |
| 2026-05-06 00:59 | 54.69341 | -112.70084 | 32250 ft | 534 kts | 205° |
| 2026-05-06 00:59 | 54.62421 | -112.74330 | 32212 ft | 513 kts | 205° |
| 2026-05-06 00:59 | 54.59109 | -112.76358 | 32215 ft | 497 kts | 205° |
| 2026-05-06 01:00 | 54.55901 | -112.78322 | 32210 ft | 482 kts | 205° |
| 2026-05-06 01:00 | 54.52782 | -112.80233 | 32223 ft | 469 kts | 206° |
| 2026-05-06 01:00 | 54.49753 | -112.82088 | 32214 ft | 456 kts | 206° |
| 2026-05-06 01:00 | 54.46802 | -112.83894 | 32222 ft | 444 kts | 206° |
| 2026-05-06 01:01 | 54.43933 | -112.85647 | 32174 ft | 433 kts | 206° |
| 2026-05-06 01:01 | 54.38344 | -112.89063 | 31583 ft | 423 kts | 206° |
| 2026-05-06 01:01 | 54.35551 | -112.90775 | 30954 ft | 438 kts | 206° |
| 2026-05-06 01:02 | 54.32544 | -112.92637 | 29774 ft | 478 kts | 205° |
| 2026-05-06 01:02 | 54.29319 | -112.94621 | 28522 ft | 508 kts | 204° |
| 2026-05-06 01:02 | 54.25927 | -112.96681 | 27341 ft | 520 kts | 204° |
| 2026-05-06 01:02 | 54.22522 | -112.98719 | 26199 ft | 516 kts | 203° |
| 2026-05-06 01:03 | 54.19161 | -113.00719 | 25108 ft | 509 kts | 203° |
| 2026-05-06 01:03 | 54.15842 | -113.02697 | 24057 ft | 501 kts | 203° |
| 2026-05-06 01:03 | 54.12586 | -113.04643 | 23063 ft | 490 kts | 203° |
| 2026-05-06 01:03 | 54.09399 | -113.06551 | 22073 ft | 480 kts | 203° |
| 2026-05-06 01:04 | 54.06274 | -113.08424 | 21056 ft | 473 kts | 203° |
| 2026-05-06 01:04 | 54.03184 | -113.10277 | 20064 ft | 468 kts | 203° |
| 2026-05-06 01:04 | 54.00134 | -113.12103 | 19103 ft | 463 kts | 202° |
| 2026-05-06 01:04 | 53.97105 | -113.13911 | 18116 ft | 458 kts | 202° |
| 2026-05-06 01:05 | 53.94117 | -113.15689 | 17227 ft | 449 kts | 202° |
| 2026-05-06 01:05 | 53.91208 | -113.17418 | 16426 ft | 436 kts | 202° |
| 2026-05-06 01:05 | 53.88390 | -113.19098 | 15673 ft | 425 kts | 202° |
| 2026-05-06 01:05 | 53.85633 | -113.20736 | 14937 ft | 414 kts | 202° |
| 2026-05-06 01:06 | 53.82988 | -113.22308 | 14414 ft | 399 kts | 202° |
| 2026-05-06 01:06 | 53.80450 | -113.23811 | 14283 ft | 374 kts | 202° |
| 2026-05-06 01:06 | 53.78063 | -113.25225 | 14150 ft | 354 kts | 202° |
| 2026-05-06 01:06 | 53.75799 | -113.26566 | 13945 ft | 338 kts | 202° |
| 2026-05-06 01:07 | 53.73569 | -113.27892 | 12998 ft | 344 kts | 201° |
| 2026-05-06 01:07 | 53.71297 | -113.29241 | 12391 ft | 340 kts | 201° |
| 2026-05-06 01:07 | 53.69126 | -113.30523 | 12273 ft | 321 kts | 201° |
| 2026-05-06 01:07 | 53.67073 | -113.31734 | 12080 ft | 307 kts | 201° |
| 2026-05-06 01:08 | 53.65076 | -113.32912 | 11652 ft | 302 kts | 201° |
| 2026-05-06 01:08 | 53.63105 | -113.34074 | 11198 ft | 299 kts | 201° |
| 2026-05-06 01:08 | 53.61149 | -113.35219 | 10772 ft | 295 kts | 199° |
| 2026-05-06 01:08 | 53.59155 | -113.35830 | 10421 ft | 289 kts | 182° |
| 2026-05-06 01:09 | 53.57180 | -113.35919 | 10227 ft | 278 kts | 182° |
| 2026-05-06 01:09 | 53.55278 | -113.36041 | 10099 ft | 271 kts | 183° |
| 2026-05-06 01:09 | 53.53397 | -113.36189 | 9830 ft | 273 kts | 183° |
| 2026-05-06 01:09 | 53.51469 | -113.36317 | 9569 ft | 281 kts | 178° |
| 2026-05-06 01:10 | 53.49517 | -113.35883 | 9278 ft | 286 kts | 168° |
| 2026-05-06 01:10 | 53.47585 | -113.35184 | 8979 ft | 280 kts | 167° |
| 2026-05-06 01:10 | 53.45735 | -113.34501 | 8717 ft | 271 kts | 168° |
| 2026-05-06 01:10 | 53.43913 | -113.33863 | 8456 ft | 263 kts | 168° |
| 2026-05-06 01:11 | 53.42168 | -113.33280 | 8358 ft | 251 kts | 168° |
| 2026-05-06 01:11 | 53.40468 | -113.32724 | 8186 ft | 249 kts | 169° |
| 2026-05-06 01:11 | 53.38781 | -113.32177 | 7943 ft | 245 kts | 169° |
| 2026-05-06 01:11 | 53.37114 | -113.31708 | 7716 ft | 243 kts | 177° |
| 2026-05-06 01:12 | 53.35456 | -113.31947 | 7673 ft | 237 kts | 188° |
| 2026-05-06 01:12 | 53.33778 | -113.32322 | 7449 ft | 250 kts | 187° |
| 2026-05-06 01:12 | 53.32043 | -113.32671 | 7143 ft | 250 kts | 187° |
| 2026-05-06 01:12 | 53.30352 | -113.32993 | 6849 ft | 239 kts | 186° |
| 2026-05-06 01:13 | 53.28732 | -113.33294 | 6527 ft | 230 kts | 186° |
| 2026-05-06 01:13 | 53.27172 | -113.33580 | 6221 ft | 221 kts | 186° |
| 2026-05-06 01:13 | 53.25670 | -113.33855 | 5954 ft | 215 kts | 186° |
| 2026-05-06 01:13 | 53.24206 | -113.34202 | 5688 ft | 212 kts | 194° |
| 2026-05-06 01:14 | 53.21873 | -113.36857 | 5210 ft | 202 kts | 237° |
| 2026-05-06 01:14 | 53.21312 | -113.38936 | 4973 ft | 192 kts | 257° |
| 2026-05-06 01:14 | 53.21190 | -113.41083 | 4768 ft | 185 kts | 274° |
| 2026-05-06 01:15 | 53.21432 | -113.43216 | 4540 ft | 189 kts | 290° |
| 2026-05-06 01:15 | 53.22024 | -113.45169 | 4211 ft | 188 kts | 308° |
| 2026-05-06 01:15 | 53.22919 | -113.46790 | 4061 ft | 191 kts | 317° |
| 2026-05-06 01:15 | 53.23858 | -113.48351 | 3914 ft | 190 kts | 317° |
| 2026-05-06 01:16 | 53.24789 | -113.49848 | 3714 ft | 180 kts | 321° |
| 2026-05-06 01:16 | 53.25667 | -113.51201 | 3351 ft | 164 kts | 318° |
| 2026-05-06 01:16 | 53.26442 | -113.52511 | 2942 ft | 155 kts | 315° |
| 2026-05-06 01:16 | 53.27175 | -113.53845 | 2713 ft | 157 kts | 306° |
| 2026-05-06 01:17 | 53.27897 | -113.55150 | 2567 ft | 154 kts | 327° |
| 2026-05-06 01:17 | 53.28698 | -113.56349 | 2416 ft | 158 kts | 315° |
| 2026-05-06 01:17 | 53.29459 | -113.57603 | 2383 ft | 141 kts | 315° |
| 2026-05-06 01:17 | 53.29999 | -113.58503 | 2381 ft | 79 kts | 315° |
| 2026-05-06 01:18 | 53.30291 | -113.58852 | 2384 ft | 33 kts | 5° |
| 2026-05-06 01:18 | 53.30464 | -113.58856 | 2383 ft | 15 kts | 359° |
| 2026-05-06 01:18 | 53.30526 | -113.58847 | 2385 ft | 7 kts | 12° |
| 2026-05-06 01:18 | 53.30572 | -113.58809 | 2383 ft | 5 kts | 52° |
| 2026-05-06 01:19 | 53.30595 | -113.58732 | 2383 ft | 7 kts | 80° |
| 2026-05-06 01:19 | 53.30594 | -113.58699 | 2383 ft | 4 kts | 102° |
| 2026-05-06 01:19 | 53.30599 | -113.58631 | 2383 ft | 9 kts | 59° |
| 2026-05-06 01:19 | 53.30621 | -113.58585 | 2388 ft | 6 kts | 48° |
| 2026-05-06 01:20 | 53.30626 | -113.58562 | 2383 ft | 1 kts | 81° |
| 2026-05-06 01:20 | 53.30634 | -113.58531 | 2385 ft | 0 kts | 50° |
| 2026-05-06 01:20 | 53.30631 | -113.58536 | 2383 ft | 1 kts | 50° |
| 2026-05-06 01:20 | 53.30629 | -113.58541 | 2383 ft | 2 kts | 40° |
| 2026-05-06 01:21 | 53.30632 | -113.58531 | 2383 ft | 1 kts | 56° |
| 2026-05-06 01:21 | 53.30635 | -113.58523 | 2387 ft | 0 kts | 54° |
| 2026-05-06 01:21 | 53.30638 | -113.58520 | 2385 ft | 0 kts | 43° |
| 2026-05-06 01:21 | 53.30637 | -113.58522 | 2386 ft | 2 kts | 43° |
| 2026-05-06 01:22 | 53.30635 | -113.58524 | 2383 ft | 0 kts | 43° |